sensor_id;sensor_type;location;lat;lon;timestamp;temperature;humidity
34953;DHT22;21164;54.378;10.202;2022-09-01T00:01:53;15.60;99.90
34953;DHT22;21164;54.378;10.202;2022-09-01T00:04:21;15.70;99.90
34953;DHT22;21164;54.378;10.202;2022-09-01T00:06:50;15.60;99.90
34953;DHT22;21164;54.378;10.202;2022-09-01T00:09:18;15.60;99.90
34953;DHT22;21164;54.378;10.202;2022-09-01T00:11:46;15.50;99.90
34953;DHT22;21164;54.378;10.202;2022-09-01T00:14:13;15.40;99.90
34953;DHT22;21164;54.378;10.202;2022-09-01T00:16:39;15.50;99.90
34953;DHT22;21164;54.378;10.202;2022-09-01T00:19:05;15.50;99.90
34953;DHT22;21164;54.378;10.202;2022-09-01T00:21:34;15.40;99.90
34953;DHT22;21164;54.378;10.202;2022-09-01T00:24:01;15.40;99.90
34953;DHT22;21164;54.378;10.202;2022-09-01T00:26:27;15.50;99.90
34953;DHT22;21164;54.378;10.202;2022-09-01T00:28:52;15.40;99.90
34953;DHT22;21164;54.378;10.202;2022-09-01T00:31:19;15.30;99.90
34953;DHT22;21164;54.378;10.202;2022-09-01T00:33:45;15.30;99.90
34953;DHT22;21164;54.378;10.202;2022-09-01T00:36:11;15.30;99.90
34953;DHT22;21164;54.378;10.202;2022-09-01T00:38:37;15.40;99.90
34953;DHT22;21164;54.378;10.202;2022-09-01T00:41:03;15.30;99.90
34953;DHT22;21164;54.378;10.202;2022-09-01T00:46:09;15.30;99.90
34953;DHT22;21164;54.378;10.202;2022-09-01T00:48:35;15.20;99.90
34953;DHT22;21164;54.378;10.202;2022-09-01T00:51:03;15.30;99.90
34953;DHT22;21164;54.378;10.202;2022-09-01T00:53:29;15.20;99.90
34953;DHT22;21164;54.378;10.202;2022-09-01T00:55:55;15.10;99.90
34953;DHT22;21164;54.378;10.202;2022-09-01T00:58:21;15.10;99.90
34953;DHT22;21164;54.378;10.202;2022-09-01T01:00:48;15.10;99.90
34953;DHT22;21164;54.378;10.202;2022-09-01T01:03:16;15.20;99.90
34953;DHT22;21164;54.378;10.202;2022-09-01T01:05:56;15.30;99.90
34953;DHT22;21164;54.378;10.202;2022-09-01T01:08:33;15.40;99.90
34953;DHT22;21164;54.378;10.202;2022-09-01T01:11:02;15.30;99.90
34953;DHT22;21164;54.378;10.202;2022-09-01T01:13:28;15.30;99.90
34953;DHT22;21164;54.378;10.202;2022-09-01T01:15:57;15.30;99.90
34953;DHT22;21164;54.378;10.202;2022-09-01T01:18:24;15.10;99.90
34953;DHT22;21164;54.378;10.202;2022-09-01T01:21:02;15.10;99.90
34953;DHT22;21164;54.378;10.202;2022-09-01T01:23:59;15.10;99.90
34953;DHT22;21164;54.378;10.202;2022-09-01T01:26:26;14.90;99.90
34953;DHT22;21164;54.378;10.202;2022-09-01T01:28:52;14.70;99.90
34953;DHT22;21164;54.378;10.202;2022-09-01T01:31:19;14.80;99.90
34953;DHT22;21164;54.378;10.202;2022-09-01T01:33:50;14.80;99.90
34953;DHT22;21164;54.378;10.202;2022-09-01T01:38:55;14.70;99.90
34953;DHT22;21164;54.378;10.202;2022-09-01T01:41:22;14.50;99.90
34953;DHT22;21164;54.378;10.202;2022-09-01T01:43:48;14.50;99.90
34953;DHT22;21164;54.378;10.202;2022-09-01T01:46:15;14.30;99.90
34953;DHT22;21164;54.378;10.202;2022-09-01T01:48:43;14.40;99.90
34953;DHT22;21164;54.378;10.202;2022-09-01T01:51:10;14.50;99.90
34953;DHT22;21164;54.378;10.202;2022-09-01T01:53:36;14.70;99.90
34953;DHT22;21164;54.378;10.202;2022-09-01T01:56:03;14.80;99.90
34953;DHT22;21164;54.378;10.202;2022-09-01T01:58:30;14.80;99.90
34953;DHT22;21164;54.378;10.202;2022-09-01T02:00:58;14.80;99.90
34953;DHT22;21164;54.378;10.202;2022-09-01T02:03:26;14.80;99.90
34953;DHT22;21164;54.378;10.202;2022-09-01T02:05:54;14.60;99.90
34953;DHT22;21164;54.378;10.202;2022-09-01T02:08:21;14.50;99.90
34953;DHT22;21164;54.378;10.202;2022-09-01T02:10:52;14.60;99.90
34953;DHT22;21164;54.378;10.202;2022-09-01T02:13:21;14.70;99.90
34953;DHT22;21164;54.378;10.202;2022-09-01T02:15:57;14.80;99.90
34953;DHT22;21164;54.378;10.202;2022-09-01T02:18:27;14.80;99.90
34953;DHT22;21164;54.378;10.202;2022-09-01T02:20:55;14.90;99.90
34953;DHT22;21164;54.378;10.202;2022-09-01T02:23:23;14.90;99.90
34953;DHT22;21164;54.378;10.202;2022-09-01T02:25:52;14.90;99.90
34953;DHT22;21164;54.378;10.202;2022-09-01T02:28:19;14.50;99.90
34953;DHT22;21164;54.378;10.202;2022-09-01T02:30:51;14.30;99.90
34953;DHT22;21164;54.378;10.202;2022-09-01T02:33:20;14.10;99.90
34953;DHT22;21164;54.378;10.202;2022-09-01T02:35:48;14.00;99.90
34953;DHT22;21164;54.378;10.202;2022-09-01T02:38:14;13.90;99.90
34953;DHT22;21164;54.378;10.202;2022-09-01T02:40:42;13.90;99.90
34953;DHT22;21164;54.378;10.202;2022-09-01T02:43:13;13.90;99.90
34953;DHT22;21164;54.378;10.202;2022-09-01T02:45:39;13.90;99.90
34953;DHT22;21164;54.378;10.202;2022-09-01T02:48:09;13.90;99.90
34953;DHT22;21164;54.378;10.202;2022-09-01T02:50:36;13.90;99.90
34953;DHT22;21164;54.378;10.202;2022-09-01T02:53:02;13.90;99.90
34953;DHT22;21164;54.378;10.202;2022-09-01T02:55:31;13.90;99.90
34953;DHT22;21164;54.378;10.202;2022-09-01T02:57:57;14.00;99.90
34953;DHT22;21164;54.378;10.202;2022-09-01T03:00:23;14.30;99.90
34953;DHT22;21164;54.378;10.202;2022-09-01T03:02:57;14.50;99.90
34953;DHT22;21164;54.378;10.202;2022-09-01T03:05:26;14.50;99.90
34953;DHT22;21164;54.378;10.202;2022-09-01T03:07:57;14.50;99.90
34953;DHT22;21164;54.378;10.202;2022-09-01T03:10:35;14.40;99.90
34953;DHT22;21164;54.378;10.202;2022-09-01T03:13:05;14.50;99.90
34953;DHT22;21164;54.378;10.202;2022-09-01T03:15:33;14.50;99.90
34953;DHT22;21164;54.378;10.202;2022-09-01T03:18:01;14.50;99.90
34953;DHT22;21164;54.378;10.202;2022-09-01T03:20:29;14.40;99.90
34953;DHT22;21164;54.378;10.202;2022-09-01T03:22:58;14.30;99.90
34953;DHT22;21164;54.378;10.202;2022-09-01T03:25:24;14.60;99.90
34953;DHT22;21164;54.378;10.202;2022-09-01T03:27:51;14.60;99.90
34953;DHT22;21164;54.378;10.202;2022-09-01T03:30:17;14.40;99.90
34953;DHT22;21164;54.378;10.202;2022-09-01T03:32:45;14.60;99.90
34953;DHT22;21164;54.378;10.202;2022-09-01T03:35:11;14.40;99.90
34953;DHT22;21164;54.378;10.202;2022-09-01T03:37:37;14.20;99.90
34953;DHT22;21164;54.378;10.202;2022-09-01T03:40:05;14.30;99.90
34953;DHT22;21164;54.378;10.202;2022-09-01T03:42:33;14.30;99.90
34953;DHT22;21164;54.378;10.202;2022-09-01T03:45:00;14.30;99.90
34953;DHT22;21164;54.378;10.202;2022-09-01T03:47:27;14.30;99.90
34953;DHT22;21164;54.378;10.202;2022-09-01T03:49:53;14.20;99.90
34953;DHT22;21164;54.378;10.202;2022-09-01T03:52:21;14.20;99.90
34953;DHT22;21164;54.378;10.202;2022-09-01T03:54:52;14.00;99.90
34953;DHT22;21164;54.378;10.202;2022-09-01T03:57:18;14.00;99.90
34953;DHT22;21164;54.378;10.202;2022-09-01T03:59:43;13.90;99.90
34953;DHT22;21164;54.378;10.202;2022-09-01T04:02:09;14.00;99.90
34953;DHT22;21164;54.378;10.202;2022-09-01T04:04:35;13.90;99.90
34953;DHT22;21164;54.378;10.202;2022-09-01T04:07:01;14.00;99.90
34953;DHT22;21164;54.378;10.202;2022-09-01T04:09:26;13.90;99.90
34953;DHT22;21164;54.378;10.202;2022-09-01T04:11:52;13.70;99.90
34953;DHT22;21164;54.378;10.202;2022-09-01T04:14:18;13.80;99.90
34953;DHT22;21164;54.378;10.202;2022-09-01T04:16:44;13.70;99.90
34953;DHT22;21164;54.378;10.202;2022-09-01T04:19:33;13.70;99.90
34953;DHT22;21164;54.378;10.202;2022-09-01T04:22:01;13.70;99.90
34953;DHT22;21164;54.378;10.202;2022-09-01T04:24:29;13.70;99.90
34953;DHT22;21164;54.378;10.202;2022-09-01T04:26:57;13.80;99.90
34953;DHT22;21164;54.378;10.202;2022-09-01T04:29:26;13.70;99.90
34953;DHT22;21164;54.378;10.202;2022-09-01T04:31:53;13.70;99.90
34953;DHT22;21164;54.378;10.202;2022-09-01T04:34:22;14.00;99.90
34953;DHT22;21164;54.378;10.202;2022-09-01T04:36:49;14.10;99.90
34953;DHT22;21164;54.378;10.202;2022-09-01T04:39:19;14.20;99.90
34953;DHT22;21164;54.378;10.202;2022-09-01T04:41:45;14.40;99.90
34953;DHT22;21164;54.378;10.202;2022-09-01T04:44:12;14.40;99.90
34953;DHT22;21164;54.378;10.202;2022-09-01T04:46:43;14.40;99.90
34953;DHT22;21164;54.378;10.202;2022-09-01T04:49:13;14.40;99.90
34953;DHT22;21164;54.378;10.202;2022-09-01T04:51:45;14.50;99.90
34953;DHT22;21164;54.378;10.202;2022-09-01T04:54:12;14.50;99.90
34953;DHT22;21164;54.378;10.202;2022-09-01T04:56:40;14.50;99.90
34953;DHT22;21164;54.378;10.202;2022-09-01T04:59:07;14.60;99.90
34953;DHT22;21164;54.378;10.202;2022-09-01T05:01:35;14.60;99.90
34953;DHT22;21164;54.378;10.202;2022-09-01T05:04:08;14.60;99.90
34953;DHT22;21164;54.378;10.202;2022-09-01T05:06:34;14.70;99.90
34953;DHT22;21164;54.378;10.202;2022-09-01T05:09:04;14.70;99.90
34953;DHT22;21164;54.378;10.202;2022-09-01T05:11:29;14.70;99.90
34953;DHT22;21164;54.378;10.202;2022-09-01T05:13:57;14.70;99.90
34953;DHT22;21164;54.378;10.202;2022-09-01T05:16:23;14.70;99.90
34953;DHT22;21164;54.378;10.202;2022-09-01T05:18:51;14.80;99.90
34953;DHT22;21164;54.378;10.202;2022-09-01T05:21:20;14.80;99.90
34953;DHT22;21164;54.378;10.202;2022-09-01T05:23:49;14.80;99.90
34953;DHT22;21164;54.378;10.202;2022-09-01T05:26:25;14.80;99.90
34953;DHT22;21164;54.378;10.202;2022-09-01T05:28:53;14.80;99.90
34953;DHT22;21164;54.378;10.202;2022-09-01T05:31:21;14.80;99.90
34953;DHT22;21164;54.378;10.202;2022-09-01T05:33:48;14.90;99.90
34953;DHT22;21164;54.378;10.202;2022-09-01T05:36:18;15.00;99.90
34953;DHT22;21164;54.378;10.202;2022-09-01T05:38:45;15.20;99.90
34953;DHT22;21164;54.378;10.202;2022-09-01T05:41:15;15.30;99.90
34953;DHT22;21164;54.378;10.202;2022-09-01T05:43:43;15.50;99.90
34953;DHT22;21164;54.378;10.202;2022-09-01T05:46:10;15.60;99.90
34953;DHT22;21164;54.378;10.202;2022-09-01T05:48:37;15.60;99.90
34953;DHT22;21164;54.378;10.202;2022-09-01T05:51:06;15.70;99.90
34953;DHT22;21164;54.378;10.202;2022-09-01T05:53:32;15.80;99.90
34953;DHT22;21164;54.378;10.202;2022-09-01T05:55:59;15.80;99.90
34953;DHT22;21164;54.378;10.202;2022-09-01T05:58:26;15.90;99.90
34953;DHT22;21164;54.378;10.202;2022-09-01T06:00:53;15.90;99.90
34953;DHT22;21164;54.378;10.202;2022-09-01T06:03:21;16.00;99.90
34953;DHT22;21164;54.378;10.202;2022-09-01T06:05:49;16.00;99.90
34953;DHT22;21164;54.378;10.202;2022-09-01T06:08:19;16.00;99.90
34953;DHT22;21164;54.378;10.202;2022-09-01T06:10:45;16.10;99.90
34953;DHT22;21164;54.378;10.202;2022-09-01T06:13:12;16.00;99.90
34953;DHT22;21164;54.378;10.202;2022-09-01T06:15:41;16.00;99.90
34953;DHT22;21164;54.378;10.202;2022-09-01T06:18:10;16.00;99.90
34953;DHT22;21164;54.378;10.202;2022-09-01T06:20:41;15.90;99.90
34953;DHT22;21164;54.378;10.202;2022-09-01T06:23:08;16.00;99.90
34953;DHT22;21164;54.378;10.202;2022-09-01T06:25:37;15.90;99.90
34953;DHT22;21164;54.378;10.202;2022-09-01T06:28:04;15.90;99.90
34953;DHT22;21164;54.378;10.202;2022-09-01T06:30:30;15.90;99.90
34953;DHT22;21164;54.378;10.202;2022-09-01T06:33:01;15.90;99.90
34953;DHT22;21164;54.378;10.202;2022-09-01T06:35:26;16.10;99.90
34953;DHT22;21164;54.378;10.202;2022-09-01T06:37:55;16.20;99.90
34953;DHT22;21164;54.378;10.202;2022-09-01T06:40:21;16.20;99.90
34953;DHT22;21164;54.378;10.202;2022-09-01T06:42:51;16.20;99.90
34953;DHT22;21164;54.378;10.202;2022-09-01T06:45:22;16.20;99.90
34953;DHT22;21164;54.378;10.202;2022-09-01T06:47:49;16.40;99.90
34953;DHT22;21164;54.378;10.202;2022-09-01T06:50:19;16.30;99.90
34953;DHT22;21164;54.378;10.202;2022-09-01T06:52:47;16.40;99.90
34953;DHT22;21164;54.378;10.202;2022-09-01T06:55:16;16.60;99.90
34953;DHT22;21164;54.378;10.202;2022-09-01T06:57:42;16.70;99.90
34953;DHT22;21164;54.378;10.202;2022-09-01T07:00:16;16.90;99.90
34953;DHT22;21164;54.378;10.202;2022-09-01T07:02:52;17.00;99.90
34953;DHT22;21164;54.378;10.202;2022-09-01T07:05:19;17.10;99.90
34953;DHT22;21164;54.378;10.202;2022-09-01T07:07:47;17.10;99.90
34953;DHT22;21164;54.378;10.202;2022-09-01T07:10:17;17.20;99.90
34953;DHT22;21164;54.378;10.202;2022-09-01T07:12:50;17.40;99.90
34953;DHT22;21164;54.378;10.202;2022-09-01T07:15:16;17.50;99.90
34953;DHT22;21164;54.378;10.202;2022-09-01T07:17:45;17.50;99.90
34953;DHT22;21164;54.378;10.202;2022-09-01T07:20:13;17.50;99.90
34953;DHT22;21164;54.378;10.202;2022-09-01T07:22:40;17.50;99.90
34953;DHT22;21164;54.378;10.202;2022-09-01T07:25:06;17.40;99.90
34953;DHT22;21164;54.378;10.202;2022-09-01T07:27:32;17.60;99.90
34953;DHT22;21164;54.378;10.202;2022-09-01T07:29:58;17.70;99.90
34953;DHT22;21164;54.378;10.202;2022-09-01T07:32:24;17.80;99.90
34953;DHT22;21164;54.378;10.202;2022-09-01T07:34:50;17.80;99.90
34953;DHT22;21164;54.378;10.202;2022-09-01T07:37:17;17.90;99.90
34953;DHT22;21164;54.378;10.202;2022-09-01T07:39:42;18.00;99.90
34953;DHT22;21164;54.378;10.202;2022-09-01T07:42:11;18.20;99.90
34953;DHT22;21164;54.378;10.202;2022-09-01T07:44:37;18.20;99.90
34953;DHT22;21164;54.378;10.202;2022-09-01T07:47:03;18.30;99.90
34953;DHT22;21164;54.378;10.202;2022-09-01T07:49:32;18.20;99.90
34953;DHT22;21164;54.378;10.202;2022-09-01T07:51:58;18.30;99.90
34953;DHT22;21164;54.378;10.202;2022-09-01T07:54:28;18.30;99.90
34953;DHT22;21164;54.378;10.202;2022-09-01T07:56:54;18.40;99.90
34953;DHT22;21164;54.378;10.202;2022-09-01T07:59:20;18.40;99.90
34953;DHT22;21164;54.378;10.202;2022-09-01T08:01:46;18.40;99.90
34953;DHT22;21164;54.378;10.202;2022-09-01T08:04:12;18.50;99.90
34953;DHT22;21164;54.378;10.202;2022-09-01T08:06:38;18.60;99.90
34953;DHT22;21164;54.378;10.202;2022-09-01T08:09:04;18.70;99.90
34953;DHT22;21164;54.378;10.202;2022-09-01T08:11:32;18.80;99.90
34953;DHT22;21164;54.378;10.202;2022-09-01T08:13:58;19.00;99.90
34953;DHT22;21164;54.378;10.202;2022-09-01T08:16:29;18.90;99.90
34953;DHT22;21164;54.378;10.202;2022-09-01T08:18:55;18.90;99.90
34953;DHT22;21164;54.378;10.202;2022-09-01T08:21:22;18.90;99.90
34953;DHT22;21164;54.378;10.202;2022-09-01T08:23:50;18.80;99.90
34953;DHT22;21164;54.378;10.202;2022-09-01T08:26:18;18.60;99.90
34953;DHT22;21164;54.378;10.202;2022-09-01T08:28:44;18.60;99.90
34953;DHT22;21164;54.378;10.202;2022-09-01T08:31:12;18.70;99.90
34953;DHT22;21164;54.378;10.202;2022-09-01T08:33:39;18.80;99.90
34953;DHT22;21164;54.378;10.202;2022-09-01T08:36:08;18.80;99.90
34953;DHT22;21164;54.378;10.202;2022-09-01T08:38:33;18.80;99.90
34953;DHT22;21164;54.378;10.202;2022-09-01T08:41:00;18.70;99.90
34953;DHT22;21164;54.378;10.202;2022-09-01T08:46:29;18.80;99.90
34953;DHT22;21164;54.378;10.202;2022-09-01T08:49:00;18.80;99.90
34953;DHT22;21164;54.378;10.202;2022-09-01T08:57:23;18.70;99.90
34953;DHT22;21164;54.378;10.202;2022-09-01T08:59:52;18.70;99.90
34953;DHT22;21164;54.378;10.202;2022-09-01T09:05:07;19.10;99.90
34953;DHT22;21164;54.378;10.202;2022-09-01T09:16:16;19.20;99.90
34953;DHT22;21164;54.378;10.202;2022-09-01T09:18:55;19.30;99.90
34953;DHT22;21164;54.378;10.202;2022-09-01T09:21:32;19.50;99.90
34953;DHT22;21164;54.378;10.202;2022-09-01T09:27:19;19.70;99.90
34953;DHT22;21164;54.378;10.202;2022-09-01T09:29:54;19.70;99.90
34953;DHT22;21164;54.378;10.202;2022-09-01T09:32:22;19.80;99.90
34953;DHT22;21164;54.378;10.202;2022-09-01T09:34:49;20.00;99.90
34953;DHT22;21164;54.378;10.202;2022-09-01T09:37:30;20.10;99.90
34953;DHT22;21164;54.378;10.202;2022-09-01T09:40:15;20.10;99.90
34953;DHT22;21164;54.378;10.202;2022-09-01T09:43:03;20.20;99.90
34953;DHT22;21164;54.378;10.202;2022-09-01T09:45:35;20.20;99.90
34953;DHT22;21164;54.378;10.202;2022-09-01T09:48:27;20.20;99.90
34953;DHT22;21164;54.378;10.202;2022-09-01T09:50:53;19.90;99.90
34953;DHT22;21164;54.378;10.202;2022-09-01T09:53:26;19.70;99.90
34953;DHT22;21164;54.378;10.202;2022-09-01T09:56:40;19.80;99.90
34953;DHT22;21164;54.378;10.202;2022-09-01T09:58:43;20.10;99.90
34953;DHT22;21164;54.378;10.202;2022-09-01T10:03:50;20.50;99.90
34953;DHT22;21164;54.378;10.202;2022-09-01T10:08:58;20.50;99.90
34953;DHT22;21164;54.378;10.202;2022-09-01T10:11:28;20.70;99.90
34953;DHT22;21164;54.378;10.202;2022-09-01T10:13:55;20.60;99.90
34953;DHT22;21164;54.378;10.202;2022-09-01T10:16:22;20.60;99.90
34953;DHT22;21164;54.378;10.202;2022-09-01T10:18:49;20.70;99.90
34953;DHT22;21164;54.378;10.202;2022-09-01T10:21:36;20.50;99.90
34953;DHT22;21164;54.378;10.202;2022-09-01T10:24:32;20.50;99.90
34953;DHT22;21164;54.378;10.202;2022-09-01T10:27:00;20.40;99.90
34953;DHT22;21164;54.378;10.202;2022-09-01T10:29:31;20.40;99.90
34953;DHT22;21164;54.378;10.202;2022-09-01T10:31:58;20.60;99.90
34953;DHT22;21164;54.378;10.202;2022-09-01T10:34:28;20.50;99.90
34953;DHT22;21164;54.378;10.202;2022-09-01T10:36:57;20.00;99.90
34953;DHT22;21164;54.378;10.202;2022-09-01T10:39:23;20.00;99.90
34953;DHT22;21164;54.378;10.202;2022-09-01T10:44:27;20.50;99.90
34953;DHT22;21164;54.378;10.202;2022-09-01T10:47:07;20.70;99.90
34953;DHT22;21164;54.378;10.202;2022-09-01T10:51:59;20.80;99.90
34953;DHT22;21164;54.378;10.202;2022-09-01T10:57:08;20.60;99.90
34953;DHT22;21164;54.378;10.202;2022-09-01T10:59:34;20.80;99.90
34953;DHT22;21164;54.378;10.202;2022-09-01T11:07:03;21.00;99.90
34953;DHT22;21164;54.378;10.202;2022-09-01T11:14:28;21.40;99.90
34953;DHT22;21164;54.378;10.202;2022-09-01T11:17:37;21.60;99.90
34953;DHT22;21164;54.378;10.202;2022-09-01T11:36:15;21.70;99.90
34953;DHT22;21164;54.378;10.202;2022-09-01T11:41:25;21.90;99.90
34953;DHT22;21164;54.378;10.202;2022-09-01T11:43:55;22.00;99.90
34953;DHT22;21164;54.378;10.202;2022-09-01T11:46:31;22.20;99.90
34953;DHT22;21164;54.378;10.202;2022-09-01T11:48:59;22.00;99.90
34953;DHT22;21164;54.378;10.202;2022-09-01T11:51:35;21.90;99.90
34953;DHT22;21164;54.378;10.202;2022-09-01T11:54:03;22.40;99.90
34953;DHT22;21164;54.378;10.202;2022-09-01T11:56:29;22.40;99.90
34953;DHT22;21164;54.378;10.202;2022-09-01T11:58:54;22.20;99.90
34953;DHT22;21164;54.378;10.202;2022-09-01T12:01:35;22.20;99.90
34953;DHT22;21164;54.378;10.202;2022-09-01T12:04:23;22.40;99.90
34953;DHT22;21164;54.378;10.202;2022-09-01T12:06:54;22.60;99.90
34953;DHT22;21164;54.378;10.202;2022-09-01T12:09:21;22.40;99.90
34953;DHT22;21164;54.378;10.202;2022-09-01T12:11:46;22.50;99.90
34953;DHT22;21164;54.378;10.202;2022-09-01T12:14:19;22.50;99.90
34953;DHT22;21164;54.378;10.202;2022-09-01T12:16:56;22.90;99.90
34953;DHT22;21164;54.378;10.202;2022-09-01T12:19:23;23.30;99.90
34953;DHT22;21164;54.378;10.202;2022-09-01T12:24:24;23.40;99.90
34953;DHT22;21164;54.378;10.202;2022-09-01T12:26:53;23.20;99.90
34953;DHT22;21164;54.378;10.202;2022-09-01T12:29:20;23.20;99.90
34953;DHT22;21164;54.378;10.202;2022-09-01T12:31:48;23.20;99.90
34953;DHT22;21164;54.378;10.202;2022-09-01T12:37:22;23.00;99.90
34953;DHT22;21164;54.378;10.202;2022-09-01T12:39:58;23.20;99.90
34953;DHT22;21164;54.378;10.202;2022-09-01T12:42:25;23.40;99.90
34953;DHT22;21164;54.378;10.202;2022-09-01T12:45:00;23.70;99.90
34953;DHT22;21164;54.378;10.202;2022-09-01T12:50:00;23.30;99.90
34953;DHT22;21164;54.378;10.202;2022-09-01T12:52:27;23.10;99.90
34953;DHT22;21164;54.378;10.202;2022-09-01T13:02:37;23.70;99.90
34953;DHT22;21164;54.378;10.202;2022-09-01T13:05:23;23.60;99.90
34953;DHT22;21164;54.378;10.202;2022-09-01T13:07:53;23.10;99.90
34953;DHT22;21164;54.378;10.202;2022-09-01T13:10:20;22.90;99.90
34953;DHT22;21164;54.378;10.202;2022-09-01T13:12:46;23.20;99.90
34953;DHT22;21164;54.378;10.202;2022-09-01T13:15:12;23.50;99.90
34953;DHT22;21164;54.378;10.202;2022-09-01T13:17:38;23.80;99.90
34953;DHT22;21164;54.378;10.202;2022-09-01T13:20:07;24.10;99.90
34953;DHT22;21164;54.378;10.202;2022-09-01T13:22:34;23.90;99.90
34953;DHT22;21164;54.378;10.202;2022-09-01T13:25:00;23.50;99.90
34953;DHT22;21164;54.378;10.202;2022-09-01T13:27:26;23.00;99.90
34953;DHT22;21164;54.378;10.202;2022-09-01T13:29:52;23.00;99.90
34953;DHT22;21164;54.378;10.202;2022-09-01T13:32:18;23.00;99.90
34953;DHT22;21164;54.378;10.202;2022-09-01T13:34:44;23.40;99.90
34953;DHT22;21164;54.378;10.202;2022-09-01T13:37:09;23.40;99.90
34953;DHT22;21164;54.378;10.202;2022-09-01T13:39:35;23.70;99.90
34953;DHT22;21164;54.378;10.202;2022-09-01T13:42:00;24.00;99.90
34953;DHT22;21164;54.378;10.202;2022-09-01T13:44:26;23.90;99.90
34953;DHT22;21164;54.378;10.202;2022-09-01T13:46:52;23.90;99.90
34953;DHT22;21164;54.378;10.202;2022-09-01T13:49:18;23.90;99.90
34953;DHT22;21164;54.378;10.202;2022-09-01T13:51:49;24.30;99.90
34953;DHT22;21164;54.378;10.202;2022-09-01T13:54:14;23.80;99.90
34953;DHT22;21164;54.378;10.202;2022-09-01T13:56:40;24.10;99.90
34953;DHT22;21164;54.378;10.202;2022-09-01T13:59:05;24.30;99.90
34953;DHT22;21164;54.378;10.202;2022-09-01T14:01:31;24.70;99.90
34953;DHT22;21164;54.378;10.202;2022-09-01T14:03:57;25.10;99.90
34953;DHT22;21164;54.378;10.202;2022-09-01T14:06:23;25.10;99.90
34953;DHT22;21164;54.378;10.202;2022-09-01T14:08:49;25.80;99.90
34953;DHT22;21164;54.378;10.202;2022-09-01T14:11:16;26.50;99.90
34953;DHT22;21164;54.378;10.202;2022-09-01T14:13:42;27.00;99.90
34953;DHT22;21164;54.378;10.202;2022-09-01T14:16:11;27.30;99.90
34953;DHT22;21164;54.378;10.202;2022-09-01T14:18:37;27.60;99.90
34953;DHT22;21164;54.378;10.202;2022-09-01T14:21:04;27.80;99.90
34953;DHT22;21164;54.378;10.202;2022-09-01T14:23:30;27.70;99.90
34953;DHT22;21164;54.378;10.202;2022-09-01T14:25:56;28.00;99.90
34953;DHT22;21164;54.378;10.202;2022-09-01T14:28:23;27.70;99.90
34953;DHT22;21164;54.378;10.202;2022-09-01T14:30:50;28.00;99.90
34953;DHT22;21164;54.378;10.202;2022-09-01T14:33:17;28.40;99.90
34953;DHT22;21164;54.378;10.202;2022-09-01T14:35:46;28.40;99.90
34953;DHT22;21164;54.378;10.202;2022-09-01T14:38:12;28.50;99.90
34953;DHT22;21164;54.378;10.202;2022-09-01T14:40:39;28.70;99.90
34953;DHT22;21164;54.378;10.202;2022-09-01T14:43:07;27.60;99.90
34953;DHT22;21164;54.378;10.202;2022-09-01T14:45:34;28.30;99.90
34953;DHT22;21164;54.378;10.202;2022-09-01T14:48:02;28.60;99.90
34953;DHT22;21164;54.378;10.202;2022-09-01T14:50:30;28.70;99.90
34953;DHT22;21164;54.378;10.202;2022-09-01T14:52:58;29.70;99.90
34953;DHT22;21164;54.378;10.202;2022-09-01T14:55:26;29.90;99.90
34953;DHT22;21164;54.378;10.202;2022-09-01T14:57:52;29.80;99.90
34953;DHT22;21164;54.378;10.202;2022-09-01T15:00:20;30.20;99.90
34953;DHT22;21164;54.378;10.202;2022-09-01T15:02:47;30.40;99.90
34953;DHT22;21164;54.378;10.202;2022-09-01T15:05:12;30.40;99.90
34953;DHT22;21164;54.378;10.202;2022-09-01T15:07:39;30.60;99.90
34953;DHT22;21164;54.378;10.202;2022-09-01T15:10:07;30.90;99.90
34953;DHT22;21164;54.378;10.202;2022-09-01T15:12:33;30.90;99.90
34953;DHT22;21164;54.378;10.202;2022-09-01T15:15:00;30.80;99.90
34953;DHT22;21164;54.378;10.202;2022-09-01T15:17:26;30.90;99.90
34953;DHT22;21164;54.378;10.202;2022-09-01T15:19:52;31.10;99.90
34953;DHT22;21164;54.378;10.202;2022-09-01T15:22:18;30.90;99.90
34953;DHT22;21164;54.378;10.202;2022-09-01T15:24:44;31.40;99.90
34953;DHT22;21164;54.378;10.202;2022-09-01T15:27:10;31.50;99.90
34953;DHT22;21164;54.378;10.202;2022-09-01T15:29:36;31.40;99.90
34953;DHT22;21164;54.378;10.202;2022-09-01T15:32:11;31.60;99.90
34953;DHT22;21164;54.378;10.202;2022-09-01T15:34:38;32.10;99.90
34953;DHT22;21164;54.378;10.202;2022-09-01T15:37:03;32.40;99.60
34953;DHT22;21164;54.378;10.202;2022-09-01T15:39:29;32.50;99.70
34953;DHT22;21164;54.378;10.202;2022-09-01T15:41:55;31.90;99.20
34953;DHT22;21164;54.378;10.202;2022-09-01T15:44:21;32.30;99.80
34953;DHT22;21164;54.378;10.202;2022-09-01T15:46:46;32.10;99.60
34953;DHT22;21164;54.378;10.202;2022-09-01T15:49:12;32.50;99.40
34953;DHT22;21164;54.378;10.202;2022-09-01T15:51:42;32.20;99.10
34953;DHT22;21164;54.378;10.202;2022-09-01T15:54:19;32.70;99.00
34953;DHT22;21164;54.378;10.202;2022-09-01T15:56:45;32.80;98.80
34953;DHT22;21164;54.378;10.202;2022-09-01T15:59:11;33.00;98.70
34953;DHT22;21164;54.378;10.202;2022-09-01T16:01:39;32.80;98.60
34953;DHT22;21164;54.378;10.202;2022-09-01T16:04:07;32.70;98.70
34953;DHT22;21164;54.378;10.202;2022-09-01T16:06:38;32.40;98.30
34953;DHT22;21164;54.378;10.202;2022-09-01T16:09:05;32.40;98.50
34953;DHT22;21164;54.378;10.202;2022-09-01T16:11:31;32.50;98.50
34953;DHT22;21164;54.378;10.202;2022-09-01T16:13:57;32.50;98.30
34953;DHT22;21164;54.378;10.202;2022-09-01T16:24:23;31.60;98.70
34953;DHT22;21164;54.378;10.202;2022-09-01T16:26:50;31.80;98.70
34953;DHT22;21164;54.378;10.202;2022-09-01T16:29:26;31.90;98.80
34953;DHT22;21164;54.378;10.202;2022-09-01T16:31:55;31.60;98.60
34953;DHT22;21164;54.378;10.202;2022-09-01T16:34:21;30.80;98.80
34953;DHT22;21164;54.378;10.202;2022-09-01T16:39:31;29.40;99.90
34953;DHT22;21164;54.378;10.202;2022-09-01T16:45:06;28.10;99.90
34953;DHT22;21164;54.378;10.202;2022-09-01T16:51:02;27.00;99.90
34953;DHT22;21164;54.378;10.202;2022-09-01T16:53:29;26.80;99.90
34953;DHT22;21164;54.378;10.202;2022-09-01T17:01:47;25.80;99.90
34953;DHT22;21164;54.378;10.202;2022-09-01T17:04:45;25.50;99.90
34953;DHT22;21164;54.378;10.202;2022-09-01T17:10:10;24.70;99.90
34953;DHT22;21164;54.378;10.202;2022-09-01T17:12:45;24.40;99.90
34953;DHT22;21164;54.378;10.202;2022-09-01T17:15:13;24.10;99.90
34953;DHT22;21164;54.378;10.202;2022-09-01T17:17:54;23.90;99.90